Naha City, Japan

3:33 PM JST on November 29, 2014 (GMT +0900)
Naha | Change Station
CLOSE
Current Station
Airport
Location: Naha City,
Elevation: 20 ft
Nearby Weather Stations

Elev 20 ft 26.20 °N, 127.65 °E | Updated 33 minutes ago

Mostly Cloudy
Mostly Cloudy
75 °F
Feels Like 75 °F
N
8
Wind Variable Wind from SSE

Today
High -- | Low -- °F
--% Chance of Precip.
Yesterday
High -- | Low -- °F
Precip. -- in
6:57 AM 5:37 PM
Waxing Crescent, 48% visible
Pressure 29.98 in
Visibility 6.2 miles
Clouds Few 1300 ft
Scattered Clouds 5000 ft
Mostly Cloudy 12000 ft
Dew Point 68 °F
Humidity 78%
Rainfall 0.00 in
Snow Depth Not available.
UV 2 out of 12
Pollen Not available.
Air Quality Not available.
Flu Activity Not available.
METAR ROAH 290600Z 16007KT 9999 VCSH FEW013 SCT050 BKN120 24/20 Q1015 RMK 1CU013 3SC050 7AC120 A2999

More Conditions Fewer Conditions

Pressure 29.98 in
Visibility 6.2 miles
Clouds Few 1300 ft
Scattered Clouds 5000 ft
Mostly Cloudy 12000 ft
Dew Point 68 °F
Humidity 78%
Rainfall 0.00 in
Snow Depth Not available.
UV 2 out of 12
Pollen Not available.
Air Quality Not available.
Flu Activity Not available.
METAR ROAH 290600Z 16007KT 9999 VCSH FEW013 SCT050 BKN120 24/20 Q1015 RMK 1CU013 3SC050 7AC120 A2999

More Conditions Fewer Conditions

10-Day Weather Forecast

Almanac

Astronomy

Nov. 29, 2014 Rise Set
Actual Time
Civil Twilight
Nautical Twilight
Astronomical Twilight
Moon
Length of Visible Light
Length of Day
Tomorrow will be .
, % of the Moon is Illuminated

Today's Extremes

Country Highs Country Lows

Community

WunderPhotos

Upload Photos

1,774,431 photos uploaded!

WunderBlogs® & News

Nearby

Air Quality

  Air Quality AQ Index Pollutant
Not available.

Snow Depth

Station Depth Elevation

Earthquake Activity

City Distance Mag. Time & Date
Minimum magnitude displayed is 2.5.

Coastal Water Temperatures

Place Temperature

Nearby Weather Stations